createdAt,value
2018-09-12T00:00:32.043Z,3.77
2018-09-12T00:01:06.086Z,3.70
2018-09-12T00:01:39.837Z,3.50
2018-09-12T00:02:13.889Z,3.30
2018-09-12T00:02:47.731Z,3.43
2018-09-12T00:03:21.620Z,3.57
2018-09-12T00:03:55.686Z,3.40
2018-09-12T00:04:29.482Z,3.90
2018-09-12T00:05:03.450Z,3.67
2018-09-12T00:05:37.516Z,3.03
2018-09-12T00:06:11.416Z,3.73
2018-09-12T00:06:45.558Z,3.40
2018-09-12T00:07:19.786Z,3.97
2018-09-12T00:07:54.545Z,3.50
2018-09-12T00:08:28.682Z,3.73
2018-09-12T00:09:02.815Z,3.90
2018-09-12T00:09:36.915Z,4.00
2018-09-12T00:10:11.067Z,3.33
2018-09-12T00:10:44.973Z,3.60
2018-09-12T00:11:19.089Z,3.87
2018-09-12T00:11:53.010Z,3.77
2018-09-12T00:12:26.979Z,4.07
2018-09-12T00:13:00.893Z,4.63
2018-09-12T00:13:35.862Z,4.00
2018-09-12T00:14:09.956Z,4.43
2018-09-12T00:14:43.768Z,4.17
2018-09-12T00:15:17.778Z,3.87
2018-09-12T00:15:51.602Z,4.00
2018-09-12T00:16:25.870Z,4.20
2018-09-12T00:16:59.751Z,4.33
2018-09-12T00:17:33.983Z,4.20
2018-09-12T00:18:07.960Z,3.80
2018-09-12T00:18:42.018Z,4.20
2018-09-12T00:19:16.148Z,3.67
2018-09-12T00:19:50.212Z,4.40
2018-09-12T00:20:24.252Z,4.57
2018-09-12T00:20:58.175Z,4.53
2018-09-12T00:21:32.576Z,4.27
2018-09-12T00:22:06.717Z,4.33
2018-09-12T00:22:40.844Z,3.70
2018-09-12T00:23:14.743Z,4.10
2018-09-12T00:23:48.604Z,4.40
2018-09-12T00:24:22.557Z,3.90
2018-09-12T00:24:56.382Z,4.43
2018-09-12T00:25:30.132Z,4.83
2018-09-12T00:26:03.846Z,4.50
2018-09-12T00:26:37.903Z,4.30
2018-09-12T00:27:11.893Z,4.33
2018-09-12T00:27:46.089Z,4.70
2018-09-12T00:28:19.823Z,4.63
2018-09-12T00:28:53.618Z,3.80
2018-09-12T00:29:28.590Z,4.47
2018-09-12T00:30:02.561Z,4.47
2018-09-12T00:30:36.338Z,4.30
2018-09-12T00:31:11.033Z,4.07
2018-09-12T00:31:45.654Z,4.10
2018-09-12T00:32:19.718Z,4.40
2018-09-12T00:32:53.516Z,4.80
2018-09-12T00:33:27.530Z,4.50
2018-09-12T00:34:01.484Z,4.57
2018-09-12T00:34:35.563Z,4.37
2018-09-12T00:35:09.563Z,4.17
2018-09-12T00:35:43.635Z,4.07
2018-09-12T00:36:17.902Z,4.37
2018-09-12T00:36:51.904Z,3.93
2018-09-12T00:37:25.800Z,4.30
2018-09-12T00:37:59.732Z,4.83
2018-09-12T00:38:33.536Z,4.60
2018-09-12T00:39:09.084Z,4.17
2018-09-12T00:39:43.144Z,4.70
2018-09-12T00:40:16.968Z,4.10
2018-09-12T00:40:50.887Z,4.60
2018-09-12T00:41:24.807Z,4.30
2018-09-12T00:41:58.679Z,4.13
2018-09-12T00:42:32.556Z,4.10
2018-09-12T00:43:06.628Z,4.60
2018-09-12T00:43:40.901Z,4.50
2018-09-12T00:44:14.783Z,4.30
2018-09-12T00:44:48.805Z,4.33
2018-09-12T00:45:22.676Z,4.83
2018-09-12T00:45:56.537Z,4.50
2018-09-12T00:46:30.577Z,4.57
2018-09-12T00:47:04.401Z,4.80
2018-09-12T00:47:38.263Z,4.53
2018-09-12T00:48:12.286Z,4.57
2018-09-12T00:48:46.065Z,4.83
2018-09-12T00:49:19.875Z,4.83
2018-09-12T00:49:53.671Z,4.50
2018-09-12T00:50:27.622Z,4.83
2018-09-12T00:51:01.554Z,4.50
2018-09-12T00:51:35.722Z,4.20
2018-09-12T00:52:09.577Z,4.63
2018-09-12T00:52:43.848Z,4.60
2018-09-12T00:53:17.710Z,5.00
2018-09-12T00:53:51.517Z,5.10
2018-09-12T00:54:25.543Z,5.33
2018-09-12T00:54:59.485Z,5.83
2018-09-12T00:55:33.453Z,4.70
2018-09-12T00:56:07.495Z,4.77
2018-09-12T00:56:41.381Z,4.93
2018-09-12T00:57:15.475Z,4.90
2018-09-12T00:57:49.554Z,5.00
2018-09-12T00:58:23.598Z,4.60
2018-09-12T00:58:57.492Z,4.30
2018-09-12T00:59:31.297Z,4.07
2018-09-12T01:00:05.408Z,4.77
2018-09-12T01:00:39.426Z,4.53
2018-09-12T01:01:13.470Z,4.90
2018-09-12T01:01:48.105Z,4.17
2018-09-12T01:02:22.279Z,4.73
2018-09-12T01:02:56.162Z,4.43
2018-09-12T01:03:30.205Z,3.93
2018-09-12T01:04:04.150Z,4.20
2018-09-12T01:04:38.007Z,4.43
2018-09-12T01:05:12.084Z,4.47
2018-09-12T01:05:46.570Z,4.60
2018-09-12T01:06:20.372Z,4.40
2018-09-12T01:06:55.103Z,4.70
2018-09-12T01:07:29.000Z,4.97
2018-09-12T01:08:03.020Z,5.07
2018-09-12T01:08:36.860Z,4.97
2018-09-12T01:09:10.512Z,5.47
2018-09-12T01:09:44.778Z,5.23
2018-09-12T01:10:18.787Z,5.43
2018-09-12T01:10:52.902Z,4.67
2018-09-12T01:11:26.756Z,5.00
2018-09-12T01:12:00.645Z,4.80
2018-09-12T01:12:34.707Z,5.13
2018-09-12T01:13:09.131Z,4.67
2018-09-12T01:13:43.188Z,4.67
2018-09-12T01:14:19.779Z,4.80
2018-09-12T01:14:53.602Z,4.57
2018-09-12T01:15:27.483Z,4.40
2018-09-12T01:16:01.284Z,4.20
2018-09-12T01:16:35.213Z,4.63
2018-09-12T01:17:09.014Z,4.93
2018-09-12T01:17:42.683Z,4.60
2018-09-12T01:18:18.176Z,5.23
2018-09-12T01:18:52.014Z,5.50
2018-09-12T01:19:25.732Z,4.27
2018-09-12T01:20:00.304Z,4.57
2018-09-12T01:20:34.101Z,4.90
2018-09-12T01:21:07.919Z,4.77
2018-09-12T01:21:41.699Z,4.50
2018-09-12T01:22:15.688Z,4.20
2018-09-12T01:22:49.793Z,4.80
2018-09-12T01:23:24.008Z,4.97
2018-09-12T01:23:58.194Z,4.90
2018-09-12T01:24:31.906Z,5.27
2018-09-12T01:25:05.913Z,5.17
2018-09-12T01:25:39.680Z,5.10
2018-09-12T01:27:16.887Z,5.20
2018-09-12T01:27:57.063Z,4.73
2018-09-12T01:28:31.002Z,5.60
2018-09-12T01:29:05.292Z,5.23
2018-09-12T01:29:39.462Z,5.57
2018-09-12T01:30:17.691Z,5.80
2018-09-12T01:30:51.979Z,5.07
2018-09-12T01:31:25.868Z,5.47
2018-09-12T01:31:59.825Z,5.60
2018-09-12T01:32:33.687Z,5.13
2018-09-12T01:33:07.630Z,5.13
2018-09-12T01:33:41.509Z,4.73
2018-09-12T01:34:15.520Z,4.87
2018-09-12T01:34:49.773Z,4.50
2018-09-12T01:35:23.846Z,4.77
2018-09-12T01:35:57.688Z,4.30
2018-09-12T01:36:33.383Z,4.37
2018-09-12T01:37:07.457Z,4.07
2018-09-12T01:37:41.143Z,4.43
2018-09-12T01:38:15.386Z,3.87
2018-09-12T01:38:50.327Z,4.00
2018-09-12T01:39:24.508Z,3.70
2018-09-12T01:39:58.657Z,3.70
2018-09-12T01:40:33.239Z,4.13
2018-09-12T01:41:07.136Z,3.90
2018-09-12T01:41:40.923Z,3.53
2018-09-12T01:42:15.223Z,3.63
2018-09-12T01:42:49.386Z,4.70
2018-09-12T01:43:26.078Z,4.10
2018-09-12T01:43:59.927Z,4.07
2018-09-12T01:44:33.914Z,4.20
2018-09-12T01:45:07.993Z,3.50
2018-09-12T01:45:41.872Z,3.93
2018-09-12T01:46:15.709Z,3.90
2018-09-12T01:46:50.132Z,3.53
2018-09-12T01:47:24.116Z,4.07
2018-09-12T01:47:58.328Z,3.80
2018-09-12T01:48:32.969Z,3.70
2018-09-12T01:49:06.981Z,3.57
2018-09-12T01:49:40.972Z,3.83
2018-09-12T01:50:15.054Z,3.70
2018-09-12T01:50:48.967Z,3.80
2018-09-12T01:51:23.007Z,3.27
2018-09-12T01:51:56.872Z,3.83
2018-09-12T01:52:30.843Z,3.73
2018-09-12T01:53:04.853Z,3.97
2018-09-12T01:53:38.676Z,3.67
2018-09-12T01:54:12.493Z,3.47
2018-09-12T01:54:46.430Z,3.53
2018-09-12T01:55:20.759Z,3.70
2018-09-12T01:55:54.987Z,3.53
2018-09-12T01:56:29.008Z,4.00
2018-09-12T01:57:02.956Z,4.03
2018-09-12T01:57:36.640Z,4.00
2018-09-12T01:58:10.541Z,3.70
2018-09-12T01:58:45.456Z,3.80
2018-09-12T01:59:19.393Z,3.87
2018-09-12T01:59:53.325Z,3.60
2018-09-12T02:00:32.760Z,3.67
2018-09-12T02:01:06.860Z,3.60
2018-09-12T02:01:41.168Z,3.90
2018-09-12T02:02:15.067Z,3.70
2018-09-12T02:02:48.823Z,3.30
2018-09-12T02:03:22.963Z,3.47
2018-09-12T02:04:00.293Z,4.07
2018-09-12T02:04:34.693Z,3.17
2018-09-12T02:05:08.851Z,3.33
2018-09-12T02:05:42.832Z,4.00
2018-09-12T02:06:16.726Z,4.13
2018-09-12T02:06:50.523Z,3.63
2018-09-12T02:07:25.419Z,3.90
2018-09-12T02:07:59.446Z,4.07
2018-09-12T02:08:33.695Z,3.77
2018-09-12T02:09:10.003Z,3.80
2018-09-12T02:09:43.924Z,4.23
2018-09-12T02:10:17.927Z,4.37
2018-09-12T02:10:51.642Z,3.47
2018-09-12T02:11:25.714Z,4.17
2018-09-12T02:11:59.611Z,4.47
2018-09-12T02:12:34.386Z,3.53
2018-09-12T02:13:08.583Z,3.70
2018-09-12T02:13:42.360Z,4.13
2018-09-12T02:14:16.285Z,4.03
2018-09-12T02:14:50.260Z,3.80
2018-09-12T02:15:24.165Z,4.00
2018-09-12T02:15:58.142Z,3.80
2018-09-12T02:16:32.212Z,4.50
2018-09-12T02:17:06.041Z,4.17
2018-09-12T02:17:39.844Z,4.27
2018-09-12T02:18:13.823Z,4.10
2018-09-12T02:18:48.245Z,4.00
2018-09-12T02:19:23.565Z,4.07
2018-09-12T02:19:57.764Z,4.23
2018-09-12T02:20:31.823Z,3.87
2018-09-12T02:21:05.742Z,4.07
2018-09-12T02:21:39.671Z,3.77
2018-09-12T02:22:13.482Z,4.23
2018-09-12T02:22:47.438Z,3.67
2018-09-12T02:23:21.301Z,3.70
2018-09-12T02:23:55.347Z,4.10
2018-09-12T02:24:29.550Z,3.70
2018-09-12T02:25:03.561Z,4.00
2018-09-12T02:25:37.447Z,4.00
2018-09-12T02:26:11.223Z,3.80
2018-09-12T02:26:45.080Z,4.23
2018-09-12T02:27:19.012Z,3.97
2018-09-12T02:27:52.820Z,4.00
2018-09-12T02:28:26.805Z,3.70
2018-09-12T02:29:00.708Z,3.70
2018-09-12T02:29:34.921Z,4.30
2018-09-12T02:30:08.920Z,4.40
2018-09-12T02:30:42.888Z,4.33
2018-09-12T02:31:16.740Z,3.80
2018-09-12T02:31:50.676Z,4.37
2018-09-12T02:32:24.715Z,3.60
2018-09-12T02:32:58.792Z,4.23
2018-09-12T02:33:33.108Z,3.97
2018-09-12T02:34:07.090Z,4.23
2018-09-12T02:34:41.195Z,4.30
2018-09-12T02:35:15.179Z,3.73
2018-09-12T02:35:54.508Z,3.83
2018-09-12T02:36:29.428Z,3.40
2018-09-12T02:37:03.777Z,3.80
2018-09-12T02:37:37.772Z,4.83
2018-09-12T02:38:11.637Z,3.97
2018-09-12T02:38:45.724Z,4.27
2018-09-12T02:39:19.726Z,4.00
2018-09-12T02:39:53.929Z,4.03
2018-09-12T02:40:27.617Z,4.23
2018-09-12T02:41:01.797Z,3.90
2018-09-12T02:41:36.028Z,4.07
2018-09-12T02:42:09.908Z,3.63
2018-09-12T02:42:43.949Z,4.23
2018-09-12T02:43:17.644Z,4.47
2018-09-12T02:43:52.516Z,3.60
2018-09-12T02:44:26.492Z,3.70
2018-09-12T02:45:00.317Z,3.87
2018-09-12T02:45:34.508Z,4.23
2018-09-12T02:46:08.349Z,4.33
2018-09-12T02:46:42.407Z,4.50
2018-09-12T02:47:21.936Z,4.17
2018-09-12T02:47:55.600Z,4.00
2018-09-12T02:48:29.759Z,3.90
2018-09-12T02:49:03.829Z,3.57
2018-09-12T02:49:38.009Z,4.10
2018-09-12T02:50:12.989Z,4.50
2018-09-12T02:50:46.932Z,4.20
2018-09-12T02:51:20.943Z,4.20
2018-09-12T02:51:55.009Z,3.73
2018-09-12T02:52:29.102Z,4.20
2018-09-12T02:53:03.429Z,3.90
2018-09-12T02:53:38.325Z,4.00
2018-09-12T02:54:12.144Z,4.33
2018-09-12T02:54:46.022Z,4.33
2018-09-12T02:55:20.077Z,4.63
2018-09-12T02:55:53.979Z,4.10
2018-09-12T02:56:28.207Z,4.33
2018-09-12T02:57:02.335Z,3.97
2018-09-12T02:57:36.645Z,4.70
2018-09-12T02:58:10.942Z,4.07
2018-09-12T02:58:44.748Z,4.13
2018-09-12T02:59:18.637Z,4.40
2018-09-12T02:59:52.430Z,4.50
2018-09-12T03:00:26.615Z,4.03
2018-09-12T03:01:00.715Z,4.00
2018-09-12T03:01:34.977Z,3.83
2018-09-12T03:02:09.441Z,4.13
2018-09-12T03:02:43.793Z,3.90
2018-09-12T03:03:17.616Z,4.03
2018-09-12T03:03:51.701Z,4.00
2018-09-12T03:04:25.601Z,3.97
2018-09-12T03:04:59.580Z,4.30
2018-09-12T03:05:33.545Z,4.13
2018-09-12T03:06:08.196Z,4.50
2018-09-12T03:06:42.439Z,4.10
2018-09-12T03:07:16.864Z,4.07
2018-09-12T03:07:51.107Z,4.07
2018-09-12T03:08:25.055Z,4.20
2018-09-12T03:08:58.926Z,4.07
2018-09-12T03:09:33.148Z,3.97
2018-09-12T03:10:07.268Z,4.43
2018-09-12T03:10:41.791Z,3.70
2018-09-12T03:11:15.789Z,4.10
2018-09-12T03:11:49.773Z,3.80
2018-09-12T03:12:23.679Z,4.20
2018-09-12T03:12:58.123Z,4.13
2018-09-12T03:13:32.034Z,4.33
2018-09-12T03:14:06.298Z,4.33
2018-09-12T03:14:41.385Z,4.13
2018-09-12T03:15:15.363Z,4.47
2018-09-12T03:15:49.155Z,4.07
2018-09-12T03:16:22.932Z,4.10
2018-09-12T03:16:57.280Z,4.50
2018-09-12T03:17:31.155Z,4.07
2018-09-12T03:18:05.114Z,3.70
2018-09-12T03:18:39.148Z,4.63
2018-09-12T03:19:13.075Z,3.97
2018-09-12T03:19:46.926Z,4.40
2018-09-12T03:20:20.914Z,4.57
2018-09-12T03:20:54.761Z,4.17
2018-09-12T03:21:28.637Z,4.33
2018-09-12T03:22:02.521Z,3.77
2018-09-12T03:22:36.315Z,4.13
2018-09-12T03:23:10.494Z,4.60
2018-09-12T03:23:44.290Z,4.30
2018-09-12T03:24:18.286Z,4.00
2018-09-12T03:24:52.339Z,4.13
2018-09-12T03:25:26.051Z,4.40
2018-09-12T03:25:59.873Z,4.20
2018-09-12T03:26:33.837Z,4.67
2018-09-12T03:27:07.799Z,4.37
2018-09-12T03:27:41.974Z,3.70
2018-09-12T03:28:16.218Z,4.37
2018-09-12T03:28:50.072Z,4.10
2018-09-12T03:29:23.985Z,4.27
2018-09-12T03:29:58.088Z,4.43
2018-09-12T03:30:31.856Z,4.40
2018-09-12T03:31:05.921Z,4.53
2018-09-12T03:31:40.316Z,4.17
2018-09-12T03:32:14.392Z,4.37
2018-09-12T03:32:48.406Z,4.60
2018-09-12T03:33:22.252Z,4.63
2018-09-12T03:33:56.065Z,4.67
2018-09-12T03:34:30.569Z,4.27
2018-09-12T03:35:05.047Z,4.07
2018-09-12T03:35:39.321Z,4.07
2018-09-12T03:36:13.247Z,4.20
2018-09-12T03:36:47.468Z,3.87
2018-09-12T03:37:21.343Z,4.33
2018-09-12T03:37:55.423Z,4.50
2018-09-12T03:38:29.467Z,4.20
2018-09-12T03:39:05.387Z,4.27
2018-09-12T03:39:39.862Z,4.40
2018-09-12T03:40:13.675Z,4.67
2018-09-12T03:40:47.602Z,4.50
2018-09-12T03:41:21.786Z,5.00
2018-09-12T03:41:55.452Z,5.10
2018-09-12T03:42:29.307Z,4.73
2018-09-12T03:43:03.088Z,4.83
2018-09-12T03:43:36.810Z,4.60
2018-09-12T03:44:11.799Z,4.37
2018-09-12T03:44:45.671Z,5.30
2018-09-12T03:45:19.556Z,4.87
2018-09-12T03:45:53.400Z,4.30
2018-09-12T03:46:27.289Z,4.17
2018-09-12T03:47:01.318Z,4.77
2018-09-12T03:47:35.235Z,4.30
2018-09-12T03:48:09.055Z,4.90
2018-09-12T03:48:44.357Z,4.47
2018-09-12T03:49:18.618Z,4.00
2018-09-12T03:49:52.249Z,4.60
2018-09-12T03:50:26.115Z,4.60
2018-09-12T03:50:59.936Z,4.87
2018-09-12T03:51:33.657Z,4.33
2018-09-12T03:52:07.693Z,4.70
2018-09-12T03:52:41.973Z,4.93
2018-09-12T03:53:16.172Z,4.90
2018-09-12T03:53:50.036Z,4.53
2018-09-12T03:54:23.880Z,5.10
2018-09-12T03:54:57.995Z,4.70
2018-09-12T03:55:31.705Z,4.50
2018-09-12T03:56:05.696Z,4.50
2018-09-12T03:56:39.630Z,5.03
2018-09-12T03:57:13.704Z,4.63
2018-09-12T03:57:47.636Z,4.97
2018-09-12T03:58:21.757Z,4.70
2018-09-12T03:58:55.684Z,5.00
2018-09-12T03:59:29.715Z,4.97
2018-09-12T04:00:04.232Z,5.20
2018-09-12T04:00:38.017Z,5.30
2018-09-12T04:01:11.920Z,5.00
2018-09-12T04:01:46.298Z,5.00
2018-09-12T04:02:20.470Z,5.03
2018-09-12T04:02:54.737Z,5.10
2018-09-12T04:03:28.618Z,5.03
2018-09-12T04:04:02.381Z,4.57
2018-09-12T04:04:36.394Z,5.10
2018-09-12T04:05:10.245Z,5.23
2018-09-12T04:05:44.747Z,4.77
2018-09-12T04:06:18.767Z,4.70
2018-09-12T04:06:52.882Z,4.67
2018-09-12T04:07:26.824Z,5.03
2018-09-12T04:08:00.596Z,4.80
2018-09-12T04:08:34.422Z,4.83
2018-09-12T04:09:08.952Z,5.03
2018-09-12T04:09:43.535Z,4.80
2018-09-12T04:10:17.571Z,4.87
2018-09-12T04:10:51.373Z,4.87
2018-09-12T04:11:25.345Z,4.53
2018-09-12T04:11:59.372Z,5.10
2018-09-12T04:12:33.657Z,4.93
2018-09-12T04:13:07.444Z,5.30
2018-09-12T04:13:41.542Z,5.10
2018-09-12T04:14:15.428Z,4.50
2018-09-12T04:14:49.370Z,4.70
2018-09-12T04:15:23.316Z,4.50
2018-09-12T04:15:57.231Z,4.83
2018-09-12T04:16:31.120Z,5.30
2018-09-12T04:17:05.005Z,5.30
2018-09-12T04:17:38.845Z,4.63
2018-09-12T04:18:12.611Z,4.50
2018-09-12T04:18:47.262Z,4.90
2018-09-12T04:19:21.229Z,4.97
2018-09-12T04:19:55.218Z,5.00
2018-09-12T04:20:29.202Z,4.80
2018-09-12T04:21:04.893Z,4.63
2018-09-12T04:21:38.783Z,5.10
2018-09-12T04:22:12.720Z,5.50
2018-09-12T04:22:47.211Z,5.10
2018-09-12T04:23:21.158Z,5.00
2018-09-12T04:23:55.434Z,5.00
2018-09-12T04:24:29.472Z,5.07
2018-09-12T04:25:03.560Z,4.93
2018-09-12T04:25:37.436Z,5.40
2018-09-12T04:26:11.636Z,4.90
2018-09-12T04:26:46.505Z,5.67
2018-09-12T04:27:20.377Z,5.13
2018-09-12T04:27:54.280Z,4.97
2018-09-12T04:28:28.109Z,4.90
2018-09-12T04:29:01.952Z,5.30
2018-09-12T04:29:35.928Z,5.03
2018-09-12T04:30:09.668Z,5.33
2018-09-12T04:30:43.739Z,5.00
2018-09-12T04:31:17.740Z,5.10
2018-09-12T04:31:52.016Z,5.30
2018-09-12T04:32:26.552Z,4.73
2018-09-12T04:33:00.266Z,5.40
2018-09-12T04:33:34.100Z,5.10
2018-09-12T04:34:07.900Z,4.80
2018-09-12T04:34:41.730Z,4.90
2018-09-12T04:35:15.822Z,5.27
2018-09-12T04:35:50.461Z,6.00
2018-09-12T04:36:24.636Z,5.27
2018-09-12T04:36:58.682Z,4.53
2018-09-12T04:37:32.683Z,5.00
2018-09-12T04:38:06.636Z,4.80
2018-09-12T04:38:40.583Z,5.00
2018-09-12T04:39:14.386Z,5.07
2018-09-12T04:39:48.872Z,5.03
2018-09-12T04:40:22.923Z,5.03
2018-09-12T04:40:57.538Z,5.13
2018-09-12T04:41:31.388Z,4.93
2018-09-12T04:42:05.900Z,5.30
2018-09-12T04:42:39.897Z,5.10
2018-09-12T04:43:14.019Z,4.50
2018-09-12T04:43:48.323Z,5.20
2018-09-12T04:44:22.919Z,5.07
2018-09-12T04:44:56.948Z,5.47
2018-09-12T04:45:30.871Z,5.50
2018-09-12T04:46:05.153Z,5.20
2018-09-12T04:46:39.099Z,4.80
2018-09-12T04:47:13.029Z,4.83
2018-09-12T04:47:46.895Z,4.90
2018-09-12T04:48:21.265Z,4.47
2018-09-12T04:48:55.139Z,4.80
2018-09-12T04:49:29.395Z,5.00
2018-09-12T04:50:04.150Z,4.60
2018-09-12T04:50:38.215Z,5.20
2018-09-12T04:51:12.086Z,4.73
2018-09-12T04:51:50.249Z,5.07
2018-09-12T04:52:25.260Z,4.60
2018-09-12T04:52:59.627Z,5.13
2018-09-12T04:53:33.443Z,5.10
2018-09-12T04:54:07.461Z,5.20
2018-09-12T04:54:41.456Z,5.30
2018-09-12T04:55:15.622Z,4.50
2018-09-12T04:55:50.201Z,4.80
2018-09-12T04:56:24.340Z,4.90
2018-09-12T04:56:58.658Z,4.90
2018-09-12T04:57:32.386Z,5.20
2018-09-12T04:58:06.334Z,4.80
2018-09-12T04:58:40.168Z,4.73
2018-09-12T04:59:14.396Z,4.70
2018-09-12T04:59:48.424Z,4.60
2018-09-12T05:00:22.979Z,5.00
2018-09-12T05:00:57.106Z,5.03
2018-09-12T05:01:31.065Z,4.63
2018-09-12T05:02:04.831Z,5.13
2018-09-12T05:02:38.828Z,5.20
2018-09-12T05:03:12.749Z,5.07
2018-09-12T05:03:46.819Z,5.23
2018-09-12T05:04:20.493Z,5.30
2018-09-12T05:04:54.743Z,4.70
2018-09-12T05:05:28.833Z,4.80
2018-09-12T05:06:02.691Z,5.87
2018-09-12T05:06:36.907Z,5.20
2018-09-12T05:07:12.370Z,5.23
2018-09-12T05:07:46.575Z,5.00
2018-09-12T05:08:20.249Z,5.30
2018-09-12T05:08:54.533Z,4.77
2018-09-12T05:09:28.546Z,5.33
2018-09-12T05:10:02.413Z,5.03
2018-09-12T05:10:36.230Z,4.60
2018-09-12T05:11:10.317Z,5.17
2018-09-12T05:11:44.087Z,4.80
2018-09-12T05:12:18.119Z,4.90
2018-09-12T05:12:52.692Z,5.30
2018-09-12T05:13:26.924Z,5.53
2018-09-12T05:14:01.056Z,5.47
2018-09-12T05:14:35.017Z,4.83
2018-09-12T05:15:08.995Z,5.23
2018-09-12T05:15:42.810Z,5.20
2018-09-12T05:16:16.911Z,5.47
2018-09-12T05:16:51.729Z,5.50
2018-09-12T05:17:25.885Z,6.30
2018-09-12T05:18:00.059Z,5.00
2018-09-12T05:18:34.917Z,5.37
2018-09-12T05:19:08.600Z,5.73
2018-09-12T05:19:42.456Z,5.47
2018-09-12T05:20:16.356Z,5.27
2018-09-12T05:20:51.327Z,5.10
2018-09-12T05:21:25.415Z,5.63
2018-09-12T05:21:59.857Z,5.73
2018-09-12T05:22:34.138Z,5.80
2018-09-12T05:23:08.500Z,6.23
2018-09-12T05:23:42.656Z,6.33
2018-09-12T05:24:16.371Z,6.37
2018-09-12T05:24:50.410Z,5.80
2018-09-12T05:25:24.461Z,6.57
2018-09-12T05:25:59.201Z,6.40
2018-09-12T05:26:33.780Z,6.47
2018-09-12T05:27:07.858Z,7.47
2018-09-12T05:27:42.812Z,6.30
2018-09-12T05:28:17.119Z,6.63
2018-09-12T05:28:51.760Z,6.23
2018-09-12T05:29:29.701Z,6.30
2018-09-12T05:30:04.882Z,6.43
2018-09-12T05:30:39.236Z,6.57
2018-09-12T05:31:13.806Z,6.37
2018-09-12T05:31:48.256Z,7.03
2018-09-12T05:32:22.607Z,6.23
2018-09-12T05:32:57.716Z,6.87
2018-09-12T05:33:32.116Z,6.57
2018-09-12T05:34:06.148Z,5.90
2018-09-12T05:34:40.247Z,6.10
2018-09-12T05:35:14.610Z,6.47
2018-09-12T05:35:48.443Z,6.37
2018-09-12T05:36:22.347Z,6.60
2018-09-12T05:36:56.198Z,7.07
2018-09-12T05:37:30.178Z,6.47
2018-09-12T05:38:04.233Z,6.40
2018-09-12T05:38:38.164Z,6.80
2018-09-12T05:39:12.077Z,6.67
2018-09-12T05:39:45.983Z,6.90
2018-09-12T05:40:19.848Z,6.60
2018-09-12T05:40:53.709Z,6.27
2018-09-12T05:41:28.210Z,6.70
2018-09-12T05:42:02.363Z,6.30
2018-09-12T05:42:36.118Z,6.47
2018-09-12T05:43:10.297Z,6.70
2018-09-12T05:43:44.060Z,6.67
2018-09-12T05:44:18.247Z,6.37
2018-09-12T05:44:52.096Z,5.80
2018-09-12T05:45:25.940Z,6.87
2018-09-12T05:46:00.144Z,6.70
2018-09-12T05:46:34.781Z,5.87
2018-09-12T05:47:08.684Z,5.97
2018-09-12T05:47:42.561Z,5.73
2018-09-12T05:48:16.259Z,5.70
2018-09-12T05:48:50.376Z,6.00
2018-09-12T05:49:24.224Z,6.20
2018-09-12T05:49:58.030Z,6.20
2018-09-12T05:50:32.218Z,6.33
2018-09-12T05:51:06.367Z,6.27
2018-09-12T05:51:40.128Z,6.17
2018-09-12T05:52:14.060Z,6.07
2018-09-12T05:52:48.170Z,6.20
2018-09-12T05:53:22.256Z,5.60
2018-09-12T05:53:56.161Z,6.00
2018-09-12T05:54:30.054Z,5.67
2018-09-12T05:55:04.637Z,5.83
2018-09-12T05:55:38.830Z,5.83
2018-09-12T05:56:12.748Z,6.00
2018-09-12T05:56:46.821Z,6.20
2018-09-12T05:57:20.651Z,6.17
2018-09-12T05:57:54.624Z,6.07
2018-09-12T05:58:28.358Z,5.70
2018-09-12T05:59:02.334Z,6.17
2018-09-12T05:59:36.444Z,6.00
2018-09-12T06:00:10.433Z,6.13
2018-09-12T06:00:44.552Z,6.13
2018-09-12T06:01:18.345Z,6.03
2018-09-12T06:01:52.415Z,6.23
2018-09-12T06:02:26.403Z,6.23
2018-09-12T06:03:00.420Z,5.97
2018-09-12T06:03:34.344Z,5.97
2018-09-12T06:04:08.608Z,6.13
2018-09-12T06:04:42.958Z,6.20
2018-09-12T06:05:17.339Z,6.13
2018-09-12T06:05:51.225Z,6.63
2018-09-12T06:06:25.627Z,5.87
2018-09-12T06:06:59.941Z,5.57
2018-09-12T06:07:33.960Z,5.63
2018-09-12T06:08:08.216Z,6.37
2018-09-12T06:08:42.064Z,6.23
2018-09-12T06:09:16.732Z,6.10
2018-09-12T06:09:50.801Z,6.23
2018-09-12T06:10:24.728Z,6.53
2018-09-12T06:10:59.053Z,6.70
2018-09-12T06:11:33.604Z,7.00
2018-09-12T06:12:07.969Z,6.43
2018-09-12T06:12:43.562Z,6.30
2018-09-12T06:13:17.252Z,6.93
2018-09-12T06:13:51.435Z,6.70
2018-09-12T06:14:25.689Z,6.90
2018-09-12T06:14:59.724Z,6.10
2018-09-12T06:15:34.065Z,6.70
2018-09-12T06:16:09.214Z,6.00
2018-09-12T06:16:43.306Z,7.00
2018-09-12T06:17:17.355Z,6.73
2018-09-12T06:17:51.486Z,6.13
2018-09-12T06:18:25.605Z,6.07
2018-09-12T06:18:59.615Z,6.47
2018-09-12T06:19:33.494Z,6.70
2018-09-12T06:20:07.890Z,6.33
2018-09-12T06:20:46.188Z,7.00
2018-09-12T06:21:26.608Z,6.37
2018-09-12T06:22:05.605Z,6.77
2018-09-12T06:22:39.677Z,7.27
2018-09-12T06:23:13.611Z,6.80
2018-09-12T06:23:47.436Z,6.33
2018-09-12T06:24:21.631Z,7.30
2018-09-12T06:24:55.405Z,6.53
2018-09-12T06:25:29.526Z,6.20
2018-09-12T06:26:03.423Z,6.63
2018-09-12T06:26:37.431Z,6.50
2018-09-12T06:27:11.428Z,6.43
2018-09-12T06:27:45.236Z,6.93
2018-09-12T06:28:19.214Z,6.77
2018-09-12T06:28:53.137Z,7.17
2018-09-12T06:29:27.228Z,6.87
2018-09-12T06:30:01.309Z,7.23
2018-09-12T06:30:35.539Z,6.60
2018-09-12T06:31:09.605Z,6.17
2018-09-12T06:31:43.640Z,6.90
2018-09-12T06:32:17.540Z,7.27
2018-09-12T06:32:51.397Z,7.37
2018-09-12T06:33:25.887Z,7.10
2018-09-12T06:33:59.634Z,7.00
2018-09-12T06:34:33.599Z,6.80
2018-09-12T06:35:07.726Z,7.20
2018-09-12T06:35:41.839Z,7.27
2018-09-12T06:36:15.872Z,7.43
2018-09-12T06:36:50.270Z,7.03
2018-09-12T06:37:24.499Z,7.23
2018-09-12T06:37:59.155Z,7.00
2018-09-12T06:38:33.016Z,7.43
2018-09-12T06:39:10.601Z,7.40
2018-09-12T06:39:44.436Z,6.97
2018-09-12T06:40:18.460Z,6.83
2018-09-12T06:40:52.356Z,7.07
2018-09-12T06:41:26.455Z,7.40
2018-09-12T06:42:00.393Z,7.30
2018-09-12T06:42:34.420Z,6.90
2018-09-12T06:43:08.920Z,7.60
2018-09-12T06:43:43.079Z,7.80
2018-09-12T06:44:16.852Z,8.40
2018-09-12T06:44:50.972Z,8.00
2018-09-12T06:45:24.681Z,7.50
2018-09-12T06:45:59.459Z,7.00
2018-09-12T06:46:33.374Z,7.57
2018-09-12T06:47:07.660Z,7.67
2018-09-12T06:47:42.096Z,7.23
2018-09-12T06:48:16.164Z,7.57
2018-09-12T06:48:50.291Z,7.30
2018-09-12T06:49:24.354Z,7.77
2018-09-12T06:49:58.634Z,8.13
2018-09-12T06:50:32.544Z,7.73
2018-09-12T06:51:06.569Z,7.00
2018-09-12T06:51:40.539Z,7.23
2018-09-12T06:52:16.080Z,7.37
2018-09-12T06:52:49.919Z,7.87
2018-09-12T06:53:23.842Z,6.93
2018-09-12T06:53:57.796Z,7.13
2018-09-12T06:54:31.679Z,6.50
2018-09-12T06:55:05.530Z,6.60
2018-09-12T06:55:39.783Z,6.93
2018-09-12T06:56:15.135Z,6.47
2018-09-12T06:56:49.437Z,7.33
2018-09-12T06:57:23.288Z,6.87
2018-09-12T06:57:57.091Z,6.07
2018-09-12T06:58:31.211Z,7.37
2018-09-12T06:59:05.377Z,6.30
2018-09-12T06:59:39.677Z,6.63
2018-09-12T07:00:14.025Z,5.50
2018-09-12T07:00:48.897Z,7.20
2018-09-12T07:01:22.924Z,6.33
2018-09-12T07:01:56.968Z,6.67
2018-09-12T07:02:30.893Z,6.57
2018-09-12T07:03:05.203Z,6.57
2018-09-12T07:03:39.410Z,7.00
2018-09-12T07:04:14.237Z,6.47
2018-09-12T07:04:49.409Z,7.47
2018-09-12T07:05:23.466Z,7.07
2018-09-12T07:05:57.744Z,7.23
2018-09-12T07:06:31.560Z,7.33
2018-09-12T07:07:05.558Z,6.63
2018-09-12T07:07:39.504Z,7.13
2018-09-12T07:08:14.055Z,6.67
2018-09-12T07:08:48.987Z,6.50
2018-09-12T07:09:22.826Z,6.70
2018-09-12T07:09:56.763Z,6.23
2018-09-12T07:10:31.264Z,6.47
2018-09-12T07:11:04.966Z,6.83
2018-09-12T07:11:38.944Z,6.23
2018-09-12T07:12:13.633Z,6.70
2018-09-12T07:12:47.998Z,6.97
2018-09-12T07:13:22.126Z,6.17
2018-09-12T07:13:56.066Z,6.73
2018-09-12T07:14:30.002Z,6.03
2018-09-12T07:15:04.384Z,6.10
2018-09-12T07:15:38.289Z,6.78
2018-09-12T07:16:13.849Z,6.40
2018-09-12T07:16:49.466Z,6.87
2018-09-12T07:17:24.348Z,6.10
2018-09-12T07:17:58.384Z,6.20
2018-09-12T07:18:32.685Z,6.50
2018-09-12T07:19:06.931Z,5.90
2018-09-12T07:19:41.198Z,6.40
2018-09-12T07:20:16.235Z,6.63
2018-09-12T07:20:52.006Z,5.90
2018-09-12T07:21:26.400Z,6.63
2018-09-12T07:22:00.970Z,7.23
2018-09-12T07:22:35.663Z,7.10
2018-09-12T07:23:09.531Z,6.37
2018-09-12T07:23:43.539Z,7.23
2018-09-12T07:24:19.545Z,6.60
2018-09-12T07:24:55.287Z,6.60
2018-09-12T07:25:29.640Z,6.65
2018-09-12T07:26:04.423Z,6.63
2018-09-12T07:26:38.716Z,6.73
2018-09-12T07:27:12.592Z,7.33
2018-09-12T07:27:47.496Z,6.83
2018-09-12T07:28:21.981Z,6.62
2018-09-12T07:28:56.163Z,5.50
2018-09-12T07:29:30.706Z,5.97
2018-09-12T07:30:05.299Z,6.30
2018-09-12T07:30:39.412Z,6.70
2018-09-12T07:31:13.598Z,5.87
2018-09-12T07:31:47.972Z,6.23
2018-09-12T07:32:22.019Z,6.37
2018-09-12T07:32:55.923Z,6.58
2018-09-12T07:33:29.604Z,6.80
2018-09-12T07:34:03.715Z,6.83
2018-09-12T07:34:37.458Z,6.83
2018-09-12T07:35:11.310Z,7.80
2018-09-12T07:35:45.260Z,6.63
2018-09-12T07:36:19.355Z,7.30